This is the latest recevied weather packets stored in our database for station/object DB0NLS-15. If no packets are shown the sender has not sent any weather packets the latest 10 day(s).
| Time | Temp. | Humidity | Pressure | Rain* | Wind** | Luminosity | Snow |
|---|---|---|---|---|---|---|---|
| 1777778753 | 12.22° C | 57% | 1003.3 hPa | 0 mm | - | - | - |
| 1777778151 | 12.22° C | 57% | 1003.3 hPa | 0 mm | - | - | - |
| 1777777548 | 12.22° C | 57% | 1003.3 hPa | 0 mm | - | - | - |
| 1777776945 | 12.22° C | 57% | 1003.4 hPa | 0 mm | - | - | - |
| 1777776342 | 11.67° C | 58% | 1003.5 hPa | 0 mm | - | - | - |
| 1777775740 | 12.22° C | 57% | 1003.5 hPa | 0 mm | - | - | - |
| 1777775137 | 13.33° C | 53% | 1003.5 hPa | 0 mm | - | - | - |
| 1777774535 | 13.89° C | 51% | 1003.6 hPa | 0 mm | - | - | - |
| 1777773932 | 13.33° C | 52% | 1003.7 hPa | 0 mm | - | - | - |
| 1777773329 | 12.78° C | 52% | 1003.6 hPa | 0 mm | - | - | - |
| 1777772727 | 13.33° C | 51% | 1003.7 hPa | 0 mm | - | - | - |
| 1777772124 | 13.89° C | 49% | 1003.7 hPa | 0 mm | - | - | - |
| 1777769171 | 13.89° C | 46% | 1003.9 hPa | 0 mm | - | - | - |
| 1777767363 | 13.33° C | 47% | 1004.1 hPa | 0 mm | - | - | - |
| 1777766760 | 12.78° C | 50% | 1004.2 hPa | 0 mm | - | - | - |
| 1777765555 | 12.78° C | 49% | 1004.5 hPa | 0 mm | - | - | - |
| 1777764952 | 12.78° C | 50% | 1004.7 hPa | 0 mm | - | - | - |
| 1777764349 | 12.78° C | 49% | 1004.6 hPa | 0 mm | - | - | - |
| 1777763747 | 12.78° C | 50% | 1004.7 hPa | 0 mm | - | - | - |
| 1777761939 | 13.33° C | 49% | 1005 hPa | 0 mm | - | - | - |
| 1777761336 | 13.33° C | 49% | 1005.1 hPa | 0 mm | - | - | - |
| 1777760734 | 12.78° C | 52% | 1005 hPa | 0 mm | - | - | - |
| 1777760131 | 13.33° C | 52% | 1005.1 hPa | 0 mm | - | - | - |
| 1777759528 | 13.33° C | 50% | 1005.1 hPa | 0 mm | - | - | - |
| 1777758925 | 14.44° C | 48% | 1005.1 hPa | 0 mm | - | - | - |
* Rain latest hour (hover to see other rain measurements)
** Current wind speed in m/s (hover to see current wind gust speed)